Time;durP1;ratioP1;P1;durP2;ratioP2;P2;SDS_P1;SDS_P2;PMS_P1;PMS_P2;Temp;Humidity;BMP_temperature;BMP_pressure;BME280_temperature;BME280_humidity;BME280_pressure;Samples;Min_cycle;Max_cycle;Signal;HPM_P1;HPM_P2
2021/03/09 00:01:51;;;;;;;63.03;25.40;;;;;;;4.47;100.00;102085.22;5137389;28;20037;-85
2021/03/09 00:04:21;;;;;;;69.28;26.33;;;;;;;4.47;100.00;102076.34;5143337;28;20465;-85
2021/03/09 00:06:52;;;;;;;71.43;27.38;;;;;;;4.47;100.00;102076.34;5144933;28;20113;-85
2021/03/09 00:09:22;;;;;;;64.72;24.98;;;;;;;4.47;100.00;102082.56;5144597;28;20031;-85
2021/03/09 00:11:53;;;;;;;67.28;26.77;;;;;;;4.48;100.00;102080.75;5143668;28;20033;-85
2021/03/09 00:14:23;;;;;;;75.25;26.35;;;;;;;4.47;100.00;102074.59;5140611;28;20042;-85
2021/03/09 00:16:54;;;;;;;68.50;25.65;;;;;;;4.46;100.00;102072.00;5143239;28;20093;-85
2021/03/09 00:19:25;;;;;;;74.18;26.67;;;;;;;4.40;100.00;102068.78;5154055;28;20030;-85
2021/03/09 00:21:55;;;;;;;74.47;27.98;;;;;;;4.39;100.00;102075.06;5154401;28;20066;-85
2021/03/09 00:24:26;;;;;;;67.95;25.63;;;;;;;4.41;100.00;102078.44;5132075;28;20031;-85
2021/03/09 00:26:56;;;;;;;72.90;26.75;;;;;;;4.38;100.00;102076.00;5144692;28;20026;-85
2021/03/09 00:29:26;;;;;;;66.10;26.55;;;;;;;4.39;100.00;102075.06;5144508;28;20023;-85
2021/03/09 00:31:57;;;;;;;72.32;28.15;;;;;;;4.40;100.00;102074.09;5143755;28;20062;-85
2021/03/09 00:34:27;;;;;;;77.28;27.55;;;;;;;4.36;100.00;102077.03;5142353;28;20033;-85
2021/03/09 00:36:58;;;;;;;75.93;28.00;;;;;;;4.36;100.00;102066.41;5145166;28;20054;-85
2021/03/09 00:39:28;;;;;;;76.72;29.75;;;;;;;4.31;100.00;102079.13;5144611;28;20031;-85
2021/03/09 00:41:59;;;;;;;70.80;27.15;;;;;;;4.30;100.00;102078.28;5143353;28;20539;-85
2021/03/09 00:44:30;;;;;;;75.07;28.33;;;;;;;4.30;100.00;102080.09;5144035;28;20061;-85
2021/03/09 00:47:00;;;;;;;76.38;27.02;;;;;;;4.25;100.00;102079.53;5131841;28;20087;-85
2021/03/09 00:49:31;;;;;;;78.80;28.05;;;;;;;4.27;100.00;102073.19;5143699;28;20474;-85
2021/03/09 00:52:02;;;;;;;78.38;28.95;;;;;;;4.27;100.00;102078.50;5142976;28;20034;-85
2021/03/09 00:54:32;;;;;;;74.03;28.95;;;;;;;4.27;100.00;102065.22;5145906;28;20385;-85
2021/03/09 00:57:02;;;;;;;83.65;28.58;;;;;;;4.28;100.00;102066.91;5147428;28;20041;-85
2021/03/09 00:59:33;;;;;;;90.25;29.98;;;;;;;4.24;100.00;102067.19;5143458;28;20030;-85
2021/03/09 01:02:03;;;;;;;78.22;29.40;;;;;;;4.24;100.00;102070.69;5142105;28;20031;-85
2021/03/09 01:04:34;;;;;;;79.55;29.33;;;;;;;4.16;100.00;102063.19;5142267;28;20492;-86
2021/03/09 01:07:04;;;;;;;86.70;29.80;;;;;;;4.13;100.00;102058.09;5143400;28;20046;-85
2021/03/09 01:09:35;;;;;;;83.93;30.42;;;;;;;4.16;100.00;102055.22;5139205;28;20406;-85
2021/03/09 01:12:06;;;;;;;84.63;29.20;;;;;;;4.17;100.00;102058.75;5142865;28;20147;-85
2021/03/09 01:14:36;;;;;;;83.40;30.08;;;;;;;4.15;100.00;102050.88;5142397;28;20030;-85
2021/03/09 01:17:07;;;;;;;73.82;26.60;;;;;;;4.18;100.00;102054.28;5143565;28;20019;-85
2021/03/09 01:19:37;;;;;;;67.25;27.40;;;;;;;4.18;100.00;102056.94;5152797;28;20078;-83
2021/03/09 01:22:07;;;;;;;75.30;29.67;;;;;;;4.12;100.00;102048.41;5144098;28;20039;-84
2021/03/09 01:24:38;;;;;;;74.25;26.88;;;;;;;4.13;100.00;102049.28;5143593;28;20405;-83
2021/03/09 01:27:11;;;;;;;74.80;28.15;;;;;;;4.21;100.00;102040.81;5144806;28;20034;-83
2021/03/09 01:29:41;;;;;;;78.25;27.40;;;;;;;4.17;100.00;102045.47;5144554;28;20393;-84
2021/03/09 01:32:12;;;;;;;72.47;27.13;;;;;;;4.14;100.00;102032.38;5144447;28;20030;-84
2021/03/09 01:34:42;;;;;;;66.78;24.70;;;;;;;4.13;100.00;102036.00;5144180;28;20030;-83
2021/03/09 01:37:12;;;;;;;65.47;26.30;;;;;;;4.12;100.00;102034.28;5144068;28;20027;-83
2021/03/09 01:39:43;;;;;;;69.57;26.05;;;;;;;4.14;100.00;102035.88;5145374;28;20113;-84
2021/03/09 01:42:13;;;;;;;67.85;25.45;;;;;;;4.12;100.00;102031.63;5145003;28;20104;-84
2021/03/09 01:44:44;;;;;;;68.70;25.52;;;;;;;4.10;100.00;102029.06;5141344;28;20050;-84
2021/03/09 01:47:16;;;;;;;73.63;26.30;;;;;;;4.07;100.00;102029.25;5146045;28;20034;-84
2021/03/09 01:49:47;;;;;;;77.53;25.05;;;;;;;4.07;100.00;102023.94;5144126;28;20031;-84
2021/03/09 01:52:17;;;;;;;70.50;25.80;;;;;;;4.08;100.00;102014.19;5145379;28;20031;-84
2021/03/09 01:54:48;;;;;;;68.30;24.65;;;;;;;4.12;100.00;102023.66;5146138;28;20038;-84
2021/03/09 01:57:19;;;;;;;65.53;24.25;;;;;;;4.11;100.00;102021.94;5156799;28;20486;-83
2021/03/09 01:59:50;;;;;;;65.57;24.42;;;;;;;4.17;100.00;102010.94;5142784;28;20033;-84
2021/03/09 02:02:20;;;;;;;64.43;24.88;;;;;;;4.14;100.00;102013.78;5142566;28;20035;-84
2021/03/09 02:04:51;;;;;;;66.28;24.08;;;;;;;4.07;100.00;102015.13;5143241;28;20478;-83
2021/03/09 02:07:22;;;;;;;70.05;23.60;;;;;;;4.07;100.00;102008.00;5143085;28;20031;-84
2021/03/09 02:09:53;;;;;;;74.68;26.65;;;;;;;4.04;100.00;102013.50;5138798;28;20023;-83
2021/03/09 02:12:39;;;;;;;77.25;26.17;;;;;;;4.08;100.00;101999.09;5137323;28;20508;-84
2021/03/09 02:15:32;;;;;;;66.00;25.63;;;;;;;3.96;100.00;102004.31;5144306;28;20477;-83
2021/03/09 02:18:12;;;;;;;65.80;22.52;;;;;;;3.95;100.00;102002.59;5143060;28;20023;-83
2021/03/09 02:21:10;;;;;;;62.65;23.42;;;;;;;3.94;100.00;102000.91;5140155;28;20030;-84
2021/03/09 02:24:07;;;;;;;63.00;24.17;;;;;;;3.97;100.00;101990.94;5147047;28;20034;-83
2021/03/09 02:27:05;;;;;;;67.60;23.02;;;;;;;4.10;100.00;101988.38;5146234;28;20118;-84
2021/03/09 02:29:42;;;;;;;64.55;24.73;;;;;;;3.98;100.00;101979.38;5147762;28;20041;-83
2021/03/09 02:32:16;;;;;;;72.55;24.98;;;;;;;3.88;100.00;101979.09;5147140;28;20054;-84
2021/03/09 02:34:53;;;;;;;63.53;23.50;;;;;;;3.92;100.00;101981.56;5146193;28;20405;-83
2021/03/09 02:37:30;;;;;;;71.13;25.65;;;;;;;3.85;100.00;101966.00;5147675;28;20503;-84
2021/03/09 02:40:06;;;;;;;74.63;26.75;;;;;;;3.86;100.00;101967.69;5147843;28;20033;-83
2021/03/09 02:42:44;;;;;;;68.60;26.00;;;;;;;3.85;100.00;101966.00;5147651;28;20041;-84
2021/03/09 02:45:17;;;;;;;67.95;26.15;;;;;;;3.88;100.00;101960.50;5144411;28;20030;-84
2021/03/09 02:47:50;;;;;;;65.40;24.35;;;;;;;3.87;100.00;101955.31;5142830;28;20038;-83
2021/03/09 02:50:33;;;;;;;73.65;27.70;;;;;;;3.79;100.00;101962.88;5145117;28;20498;-84
2021/03/09 02:53:13;;;;;;;74.57;26.52;;;;;;;3.81;100.00;101947.69;5142857;28;20386;-84
2021/03/09 02:55:46;;;;;;;75.80;27.42;;;;;;;3.80;100.00;101948.66;5148855;28;20102;-83
2021/03/09 02:58:19;;;;;;;65.45;26.67;;;;;;;3.74;100.00;101952.53;5151746;28;20026;-84
2021/03/09 03:00:51;;;;;;;73.18;26.30;;;;;;;3.74;100.00;101943.75;5147574;28;20073;-84
2021/03/09 03:03:23;;;;;;;78.22;27.73;;;;;;;3.69;100.00;101936.06;5148148;28;20041;-84
2021/03/09 03:05:57;;;;;;;70.70;26.75;;;;;;;3.64;100.00;101933.69;5147928;28;20505;-83
2021/03/09 03:08:30;;;;;;;84.90;29.85;;;;;;;3.65;100.00;101937.19;5163417;28;20030;-84
2021/03/09 03:11:03;;;;;;;85.53;27.92;;;;;;;3.70;100.00;101931.59;5147557;28;20039;-84
2021/03/09 03:13:35;;;;;;;75.10;26.85;;;;;;;3.70;100.00;101929.78;5139877;28;20035;-84
2021/03/09 03:16:07;;;;;;;79.90;28.23;;;;;;;3.66;100.00;101930.94;5131378;28;20027;-83
2021/03/09 03:18:41;;;;;;;89.57;28.30;;;;;;;3.72;100.00;101927.06;5148020;28;20098;-84
2021/03/09 03:21:14;;;;;;;83.03;29.70;;;;;;;3.65;100.00;101926.56;5147360;28;20043;-84
2021/03/09 03:23:45;;;;;;;82.05;25.42;;;;;;;3.70;100.00;101927.13;5144254;28;20030;-84
2021/03/09 03:26:16;;;;;;;78.93;27.23;;;;;;;3.63;100.00;101916.06;5147450;28;20034;-84
2021/03/09 03:28:47;;;;;;;80.78;26.67;;;;;;;3.65;100.00;101913.31;5146441;28;20117;-85
2021/03/09 03:31:18;;;;;;;85.40;28.58;;;;;;;3.61;100.00;101912.66;5147108;28;20027;-84
2021/03/09 03:33:49;;;;;;;87.45;29.52;;;;;;;3.64;100.00;101909.81;5146192;28;20035;-84
2021/03/09 03:36:19;;;;;;;79.00;29.10;;;;;;;3.63;100.00;101908.09;5143043;28;20050;-83
2021/03/09 03:38:54;;;;;;;74.43;27.63;;;;;;;3.63;100.00;101913.41;5148100;28;20027;-83
2021/03/09 03:41:25;;;;;;;80.13;28.50;;;;;;;3.64;100.00;101909.81;5148003;28;20039;-83
2021/03/09 03:43:55;;;;;;;72.22;26.67;;;;;;;3.71;100.00;101902.28;5144409;28;20031;-83
2021/03/09 03:46:26;;;;;;;83.03;27.88;;;;;;;3.71;100.00;101898.78;5146897;28;20062;-83
2021/03/09 03:48:57;;;;;;;79.50;28.05;;;;;;;3.63;100.00;101907.25;5147684;28;20034;-83
2021/03/09 03:51:34;;;;;;;78.05;26.33;;;;;;;3.57;100.00;101903.19;5147211;28;20545;-83
2021/03/09 03:54:24;;;;;;;75.95;27.60;;;;;;;3.58;100.00;101901.38;5147963;28;20022;-84
2021/03/09 03:57:01;;;;;;;84.38;27.77;;;;;;;3.58;100.00;101893.41;5149675;28;20054;-83
2021/03/09 03:59:38;;;;;;;81.72;28.05;;;;;;;3.69;100.00;101890.94;5147893;28;20034;-83
2021/03/09 04:02:11;;;;;;;76.32;27.77;;;;;;;3.61;100.00;101885.25;5162283;28;20066;-83
2021/03/09 04:04:44;;;;;;;89.38;29.13;;;;;;;3.59;100.00;101879.19;5146049;28;20026;-83
2021/03/09 04:07:22;;;;;;;73.53;27.33;;;;;;;3.65;100.00;101878.81;5146845;28;20060;-83
2021/03/09 04:09:55;;;;;;;75.18;27.23;;;;;;;3.60;100.00;101881.75;5147075;28;20054;-83
2021/03/09 04:12:29;;;;;;;84.07;28.95;;;;;;;3.61;100.00;101879.94;5141852;28;20130;-83
2021/03/09 04:15:00;;;;;;;80.93;28.20;;;;;;;3.62;100.00;101879.00;5144267;28;20115;-83
2021/03/09 04:17:32;;;;;;;78.93;25.90;;;;;;;3.58;100.00;101885.47;5147270;28;20121;-83
2021/03/09 04:20:04;;;;;;;78.70;25.65;;;;;;;3.64;100.00;101874.44;5147345;28;20473;-83
2021/03/09 04:22:35;;;;;;;75.25;26.40;;;;;;;3.65;100.00;101865.53;5149814;28;20502;-83
2021/03/09 04:25:06;;;;;;;67.45;25.58;;;;;;;3.70;100.00;101863.44;5156641;28;20058;-83
2021/03/09 04:27:38;;;;;;;75.57;25.95;;;;;;;3.69;100.00;101863.56;5146869;28;20031;-83
2021/03/09 04:30:12;;;;;;;68.68;25.58;;;;;;;3.68;100.00;101859.19;5146126;28;20117;-83
2021/03/09 04:32:43;;;;;;;70.53;25.67;;;;;;;3.66;100.00;101858.41;5146685;28;20034;-83
2021/03/09 04:35:13;;;;;;;78.38;26.77;;;;;;;3.63;100.00;101856.84;5146816;28;20561;-83
2021/03/09 04:37:45;;;;;;;78.45;26.73;;;;;;;3.61;100.00;101853.41;5144399;28;20027;-83
2021/03/09 04:40:16;;;;;;;78.43;27.00;;;;;;;3.67;100.00;101853.03;5142405;28;20031;-83
2021/03/09 04:42:47;;;;;;;76.22;25.23;;;;;;;3.65;100.00;101857.56;5143917;28;20033;-83
2021/03/09 04:45:18;;;;;;;71.90;26.15;;;;;;;3.66;100.00;101855.78;5144003;28;20061;-83
2021/03/09 04:47:49;;;;;;;67.35;25.65;;;;;;;3.66;100.00;101855.78;5141622;28;20027;-82
2021/03/09 04:50:21;;;;;;;78.97;27.58;;;;;;;3.69;100.00;101860.91;5137146;28;20027;-83
2021/03/09 04:52:51;;;;;;;79.03;25.25;;;;;;;3.69;100.00;101853.78;5141925;28;20109;-83
2021/03/09 04:55:23;;;;;;;71.68;25.85;;;;;;;3.66;100.00;101850.47;5142058;28;20256;-83
2021/03/09 04:57:54;;;;;;;71.25;26.25;;;;;;;3.67;100.00;101846.88;5143168;28;20393;-83
2021/03/09 05:00:25;;;;;;;72.88;25.27;;;;;;;3.68;100.00;101851.25;5142880;28;20034;-83
2021/03/09 05:02:56;;;;;;;65.78;24.83;;;;;;;3.69;100.00;101848.47;5142194;28;20046;-83
2021/03/09 05:05:26;;;;;;;73.45;24.40;;;;;;;3.70;100.00;101850.19;5142328;28;20026;-83
2021/03/09 05:07:57;;;;;;;63.85;23.08;;;;;;;3.68;100.00;101841.47;5143451;28;20030;-83
2021/03/09 05:10:27;;;;;;;72.15;25.70;;;;;;;3.73;100.00;101851.78;5158337;28;20019;-83
2021/03/09 05:12:58;;;;;;;66.93;23.52;;;;;;;3.68;100.00;101843.28;5143335;28;20099;-83
2021/03/09 05:15:28;;;;;;;65.32;22.88;;;;;;;3.71;100.00;101843.06;5144090;28;20023;-83
2021/03/09 05:17:59;;;;;;;69.57;23.83;;;;;;;3.80;100.00;101845.97;5158923;28;20105;-83
2021/03/09 05:20:30;;;;;;;66.50;24.60;;;;;;;3.79;100.00;101846.94;5138997;28;20031;-83
2021/03/09 05:23:00;;;;;;;65.70;23.65;;;;;;;3.72;100.00;101842.13;5146700;28;20535;-83
2021/03/09 05:25:31;;;;;;;71.22;25.05;;;;;;;3.73;100.00;101850.00;5138824;28;20027;-83
2021/03/09 05:28:02;;;;;;;68.00;23.67;;;;;;;3.72;100.00;101842.97;5140965;28;20023;-83
2021/03/09 05:30:32;;;;;;;73.00;23.60;;;;;;;3.72;100.00;101831.53;5142694;28;20023;-83
2021/03/09 05:33:03;;;;;;;75.80;24.67;;;;;;;3.73;100.00;101841.19;5144061;28;20023;-83
2021/03/09 05:35:33;;;;;;;62.42;22.20;;;;;;;3.74;100.00;101846.38;5144346;28;20117;-83
2021/03/09 05:38:04;;;;;;;75.70;25.63;;;;;;;3.74;100.00;101833.09;5138856;28;20375;-83
2021/03/09 05:40:34;;;;;;;67.18;22.38;;;;;;;3.78;100.00;101836.44;5143298;28;20023;-83
2021/03/09 05:43:05;;;;;;;69.55;23.27;;;;;;;3.83;100.00;101829.03;5142707;28;20023;-83
2021/03/09 05:45:37;;;;;;;70.40;25.30;;;;;;;3.78;100.00;101831.97;5143170;28;20030;-84
2021/03/09 05:48:08;;;;;;;72.35;25.15;;;;;;;3.75;100.00;101826.00;5142003;28;20547;-84
2021/03/09 05:50:38;;;;;;;75.00;25.75;;;;;;;3.76;100.00;101827.69;5146158;28;20034;-84
2021/03/09 05:53:09;;;;;;;67.15;24.42;;;;;;;3.77;100.00;101830.28;5147627;28;20058;-84
2021/03/09 05:55:40;;;;;;;73.20;26.17;;;;;;;3.74;100.00;101819.00;5148277;28;20077;-84
2021/03/09 05:58:10;;;;;;;73.65;27.13;;;;;;;3.74;100.00;101825.16;5162937;28;20030;-84
2021/03/09 06:00:41;;;;;;;73.68;26.00;;;;;;;3.72;100.00;101834.16;5147305;28;20022;-84
2021/03/09 06:03:11;;;;;;;69.78;26.58;;;;;;;3.74;100.00;101835.75;5129331;28;20541;-84
2021/03/09 06:06:02;;;;;;;66.93;26.00;;;;;;;3.74;100.00;101827.81;5146252;28;20023;-87
2021/03/09 06:08:33;;;;;;;79.43;26.02;;;;;;;3.76;100.00;101831.19;5161297;28;20038;-83
2021/03/09 06:11:13;;;;;;;69.70;26.00;;;;;;;3.78;100.00;101826.66;5146687;28;20486;-83
2021/03/09 06:13:44;;;;;;;78.20;26.30;;;;;;;3.81;100.00;101831.75;5147792;28;20058;-83
2021/03/09 06:16:15;;;;;;;67.78;24.73;;;;;;;3.80;100.00;101832.72;5148684;28;20030;-84
2021/03/09 06:18:58;;;;;;;75.38;26.35;;;;;;;3.82;100.00;101832.63;5144895;28;20026;-83
2021/03/09 06:21:28;;;;;;;75.55;26.52;;;;;;;3.78;100.00;101826.66;5137057;28;20069;-84
2021/03/09 06:24:17;;;;;;;75.47;25.27;;;;;;;3.78;100.00;101826.66;5146036;28;20047;-83
2021/03/09 06:26:49;;;;;;;78.25;26.08;;;;;;;3.88;100.00;101832.22;5147672;28;20113;-86
2021/03/09 06:29:19;;;;;;;78.00;26.83;;;;;;;3.82;100.00;101828.19;5137341;28;20033;-85
2021/03/09 06:31:49;;;;;;;69.05;25.55;;;;;;;3.87;100.00;101833.19;5140955;28;20035;-83
2021/03/09 06:34:38;;;;;;;74.20;26.00;;;;;;;3.89;100.00;101831.28;5147729;28;20050;-84
2021/03/09 06:37:10;;;;;;;68.10;24.30;;;;;;;4.00;100.00;101825.25;5144660;28;20027;-85
2021/03/09 06:39:47;;;;;;;69.05;25.13;;;;;;;3.97;100.00;101831.63;5146439;28;20520;-84
2021/03/09 06:42:30;;;;;;;68.65;24.63;;;;;;;4.00;100.00;101831.44;5145846;28;20405;-84
2021/03/09 06:45:05;;;;;;;69.80;24.90;;;;;;;4.01;100.00;101837.59;5144461;28;20030;-83
2021/03/09 06:47:43;;;;;;;67.38;22.40;;;;;;;4.09;100.00;101837.94;5145294;28;20027;-83
2021/03/09 06:50:16;;;;;;;72.28;25.83;;;;;;;4.03;100.00;101825.06;5148106;28;20033;-84
2021/03/09 06:53:00;;;;;;;76.32;27.65;;;;;;;4.06;100.00;101825.72;5167196;28;20108;-86
2021/03/09 06:55:34;;;;;;;81.90;25.80;;;;;;;4.10;100.00;101829.03;5145254;28;20124;-85
2021/03/09 06:58:12;;;;;;;71.68;24.55;;;;;;;4.10;100.00;101824.56;5159560;28;20030;-85
2021/03/09 07:00:43;;;;;;;82.22;27.45;;;;;;;4.06;100.00;101836.31;5141534;28;20485;-85
2021/03/09 07:03:32;;;;;;;88.97;29.10;;;;;;;4.06;100.00;101835.47;5143015;28;20106;-85
2021/03/09 07:06:03;;;;;;;88.13;33.17;;;;;;;4.10;100.00;101837.00;5139694;28;20039;-85
2021/03/09 07:08:34;;;;;;;83.82;27.13;;;;;;;4.09;100.00;101843.25;5126780;28;20070;-84
2021/03/09 07:11:04;;;;;;;76.50;27.98;;;;;;;4.05;100.00;101853.22;5144578;28;20101;-85
2021/03/09 07:13:38;;;;;;;90.93;30.77;;;;;;;4.02;100.00;101842.81;5144717;28;20107;-84
2021/03/09 07:16:09;;;;;;;85.07;27.90;;;;;;;4.12;100.00;101851.88;5159383;28;20030;-84
2021/03/09 07:18:45;;;;;;;84.78;31.70;;;;;;;4.06;100.00;101846.09;5144517;28;20277;-84
2021/03/09 07:21:16;;;;;;;124.25;46.85;;;;;;;4.05;100.00;101849.72;5144650;28;20018;-84
2021/03/09 07:23:47;;;;;;;113.63;42.00;;;;;;;4.09;100.00;101854.72;5143201;28;20053;-85
2021/03/09 07:26:19;;;;;;;94.43;33.60;;;;;;;4.16;100.00;101857.81;5143498;28;20123;-86
2021/03/09 07:28:51;;;;;;;99.43;37.13;;;;;;;4.16;100.00;101857.81;5138562;28;20023;-86
2021/03/09 07:31:24;;;;;;;88.50;33.00;;;;;;;4.27;100.00;101865.97;5157877;28;20490;-85
2021/03/09 07:33:55;;;;;;;87.32;30.05;;;;;;;4.28;100.00;101862.34;5143046;28;20236;-85
2021/03/09 07:36:26;;;;;;;79.05;30.23;;;;;;;4.23;100.00;101859.16;5144632;28;20033;-85
2021/03/09 07:38:58;;;;;;;79.43;27.17;;;;;;;4.34;100.00;101858.44;5144717;28;20023;-85
2021/03/09 07:41:28;;;;;;;88.13;30.15;;;;;;;4.38;100.00;101868.75;5143795;28;20102;-85
2021/03/09 07:44:00;;;;;;;82.57;31.13;;;;;;;4.29;100.00;101864.06;5159666;28;20166;-85
2021/03/09 07:46:31;;;;;;;91.43;29.58;;;;;;;4.45;100.00;101863.03;5144345;28;20045;-85
2021/03/09 07:49:02;;;;;;;76.60;26.85;;;;;;;4.43;100.00;101865.81;5143614;28;20033;-86
2021/03/09 07:51:32;;;;;;;86.85;29.65;;;;;;;4.39;100.00;101866.97;5151386;28;20041;-82
2021/03/09 07:54:09;;;;;;;84.97;30.73;;;;;;;4.33;100.00;101868.22;5145211;28;20030;-86
2021/03/09 07:57:15;;;;;;;85.72;29.67;;;;;;;4.38;100.00;101865.25;5158830;28;20509;-84
2021/03/09 08:00:06;;;;;;;84.28;30.38;;;;;;;4.44;100.00;101872.81;5136187;28;20035;-84
2021/03/09 08:02:39;;;;;;;83.80;30.27;;;;;;;4.52;100.00;101867.84;5140235;28;20018;-84
2021/03/09 08:05:13;;;;;;;88.82;34.70;;;;;;;4.54;100.00;101873.06;5143560;28;20030;-84
2021/03/09 08:07:53;;;;;;;82.40;28.92;;;;;;;4.60;100.00;101870.84;5143402;28;20026;-85
2021/03/09 08:10:51;;;;;;;88.43;29.98;;;;;;;4.56;100.00;101865.81;5142755;28;20038;-85
2021/03/09 08:13:23;;;;;;;87.50;30.85;;;;;;;4.59;100.00;101866.47;5142886;28;20125;-85
2021/03/09 08:16:19;;;;;;;88.97;34.13;;;;;;;4.70;100.00;101868.41;5143169;28;20070;-85
2021/03/09 08:18:51;;;;;;;106.15;40.60;;;;;;;4.62;100.00;101865.44;5139485;28;20427;-85
2021/03/09 08:21:38;;;;;;;101.07;40.13;;;;;;;4.66;100.00;101869.56;5140905;28;20030;-85
2021/03/09 08:24:09;;;;;;;94.28;33.53;;;;;;;4.70;100.00;101876.38;5142750;28;20041;-85
2021/03/09 08:26:39;;;;;;;100.57;34.97;;;;;;;4.79;100.00;101881.09;5143063;28;20026;-85
2021/03/09 08:29:28;;;;;;;91.50;30.30;;;;;;;4.87;100.00;101873.47;5142906;28;20167;-84
2021/03/09 08:32:23;;;;;;;101.97;32.80;;;;;;;5.03;100.00;101872.41;5140727;28;20041;-85
2021/03/09 08:35:12;;;;;;;84.38;32.10;;;;;;;5.05;100.00;101867.81;5132280;28;20057;-83
2021/03/09 08:37:43;;;;;;;80.20;29.30;;;;;;;5.02;100.00;101870.69;5142147;28;20267;-84
2021/03/09 08:40:17;;;;;;;86.53;30.35;;;;;;;5.15;100.00;101871.56;5141124;28;20122;-84
2021/03/09 08:43:01;;;;;;;87.63;31.23;;;;;;;5.18;100.00;101879.34;5142631;28;20038;-85
2021/03/09 08:45:40;;;;;;;84.93;31.10;;;;;;;5.17;100.00;101873.16;5142712;28;20077;-84
2021/03/09 08:48:11;;;;;;;86.95;33.30;;;;;;;5.13;100.00;101874.31;5141316;28;20031;-85
2021/03/09 08:50:45;;;;;;;92.47;32.55;;;;;;;5.11;100.00;101875.38;5140192;28;20121;-85
2021/03/09 08:53:25;;;;;;;90.35;36.72;;;;;;;5.28;100.00;101871.56;5146188;28;20433;-84
2021/03/09 08:55:57;;;;;;;92.55;38.55;;;;;;;5.28;100.00;101868.91;5142727;28;20097;-85
2021/03/09 08:58:29;;;;;;;92.75;35.92;;;;;;;5.34;100.00;101871.97;5141618;28;20429;-84
2021/03/09 09:01:00;;;;;;;87.43;32.00;;;;;;;5.38;100.00;101870.81;5136584;28;20034;-85
2021/03/09 09:03:38;;;;;;;93.93;33.13;;;;;;;5.44;100.00;101875.69;5139331;28;20030;-85
2021/03/09 09:06:09;;;;;;;92.22;33.13;;;;;;;5.42;100.00;101872.31;5156984;28;20037;-88
2021/03/09 09:08:41;;;;;;;89.35;33.15;;;;;;;5.46;100.00;101871.09;5142222;28;20393;-87
2021/03/09 09:11:11;;;;;;;84.55;33.42;;;;;;;5.40;100.00;101874.19;5141778;28;20062;-87
2021/03/09 09:13:42;;;;;;;110.90;42.05;;;;;;;5.38;100.00;101870.81;5140507;28;20073;-87
2021/03/09 09:16:17;;;;;;;97.65;36.05;;;;;;;5.43;100.00;101867.81;5139660;28;20043;-88
2021/03/09 09:18:48;;;;;;;89.38;33.55;;;;;;;5.39;100.00;101869.00;5140399;28;20015;-85
2021/03/09 09:21:21;;;;;;;94.63;35.50;;;;;;;5.40;100.00;101868.88;5123439;28;20053;-84
2021/03/09 09:23:51;;;;;;;97.13;35.40;;;;;;;5.45;100.00;101868.56;5140056;28;20490;-85
2021/03/09 09:26:24;;;;;;;98.03;36.78;;;;;;;5.38;100.00;101864.63;5152253;28;20018;-85
2021/03/09 09:29:36;;;;;;;171.07;82.07;;;;;;;5.50;100.00;101865.56;5140947;28;20336;-85
2021/03/09 09:33:26;;;;;;;;;;;;;;;;;;;;;
2021/03/09 09:36:32;;;;;;;120.65;49.97;;;;;;;5.57;100.00;101848.19;5140037;28;20042;-84
2021/03/09 09:39:18;;;;;;;96.43;36.58;;;;;;;5.61;100.00;101863.00;5143004;28;20035;-84
2021/03/09 09:42:01;;;;;;;104.55;40.53;;;;;;;5.65;100.00;101853.84;5141639;28;20138;-85
2021/03/09 09:44:42;;;;;;;97.55;38.47;;;;;;;5.66;100.00;101856.38;5142263;28;20097;-85
2021/03/09 09:47:40;;;;;;;94.53;37.03;;;;;;;5.81;100.00;101861.56;5141303;28;20037;-85
2021/03/09 09:50:39;;;;;;;87.28;33.13;;;;;;;5.86;100.00;101857.59;5142769;28;20482;-85
2021/03/09 09:53:29;;;;;;;92.90;35.90;;;;;;;5.93;100.00;101860.72;5146269;28;20174;-84
2021/03/09 09:56:13;;;;;;;92.85;33.78;;;;;;;6.04;100.00;101846.63;5156500;28;20456;-85
2021/03/09 09:58:55;;;;;;;89.20;34.28;;;;;;;6.05;100.00;101854.50;5143226;28;20147;-84
2021/03/09 10:01:47;;;;;;;92.10;36.17;;;;;;;6.00;100.00;101850.47;5142732;28;20030;-84
2021/03/09 10:04:18;;;;;;;92.43;37.20;;;;;;;5.90;100.00;101872.41;5142465;28;20406;-84
2021/03/09 10:06:55;;;;;;;100.25;40.80;;;;;;;6.00;100.00;101856.63;5157359;28;20232;-84
2021/03/09 10:09:35;;;;;;;103.22;43.60;;;;;;;5.97;100.00;101852.41;5142546;28;20034;-84
2021/03/09 10:12:30;;;;;;;96.90;35.50;;;;;;;6.02;100.00;101853.84;5160573;28;20023;-85
2021/03/09 10:15:01;;;;;;;110.75;35.63;;;;;;;5.97;100.00;101849.75;5143194;28;20039;-84
2021/03/09 10:17:45;;;;;;;108.20;43.30;;;;;;;6.04;100.00;101851.94;5158640;28;20054;-84
2021/03/09 10:24:07;;;;;;;100.38;38.92;;;;;;;6.03;100.00;101852.91;5130912;28;20034;-86
2021/03/09 10:33:07;;;;;;;90.13;33.75;;;;;;;6.22;100.00;101862.13;5140731;28;19910;-85
2021/03/09 10:39:11;;;;;;;94.90;36.83;;;;;;;6.42;100.00;101860.59;5137621;28;20042;-85
2021/03/09 10:45:01;;;;;;;101.43;39.00;;;;;;;6.70;100.00;101855.88;5143987;28;20540;-85
2021/03/09 10:47:32;;;;;;;95.15;35.80;;;;;;;6.82;100.00;101849.59;5160120;28;20150;-85
2021/03/09 10:50:03;;;;;;;87.03;33.83;;;;;;;6.83;100.00;101850.44;5138704;28;20113;-86
2021/03/09 10:52:33;;;;;;;98.45;43.15;;;;;;;6.92;100.00;101855.06;5139985;28;20045;-85
2021/03/09 10:55:04;;;;;;;93.03;35.90;;;;;;;7.00;100.00;101850.84;5153267;28;20023;-85
2021/03/09 10:57:39;;;;;;;81.35;32.83;;;;;;;7.08;100.00;101852.06;5143945;28;20710;-85
2021/03/09 11:00:23;;;;;;;74.83;30.43;;;;;;;7.15;100.00;101856.81;5142283;28;20031;-85
2021/03/09 11:03:04;;;;;;;78.10;30.80;;;;;;;7.07;100.00;101853.88;5151009;28;20329;-85
2021/03/09 11:05:34;;;;;;;75.07;31.73;;;;;;;7.03;100.00;101852.44;5140096;28;20032;-85
2021/03/09 11:08:04;;;;;;;83.45;34.60;;;;;;;7.08;100.00;101860.06;5138214;28;20057;-85
2021/03/09 11:10:36;;;;;;;80.65;32.92;;;;;;;6.96;100.00;101853.88;5140064;28;20030;-85
2021/03/09 11:13:06;;;;;;;90.90;34.10;;;;;;;7.03;100.00;101852.44;5142546;28;20069;-86
2021/03/09 11:15:37;;;;;;;80.85;33.50;;;;;;;7.05;100.00;101853.16;5142678;28;20089;-89
2021/03/09 11:18:07;;;;;;;79.47;32.70;;;;;;;6.97;100.00;101858.22;5138181;28;20027;-86
2021/03/09 11:20:40;;;;;;;81.22;32.47;;;;;;;7.11;100.00;101851.84;5140225;28;20042;-86
2021/03/09 11:23:10;;;;;;;89.47;33.47;;;;;;;7.06;100.00;101851.34;5139300;28;20415;-86
2021/03/09 11:25:43;;;;;;;77.60;32.65;;;;;;;7.14;100.00;101855.13;5146088;28;20031;-86
2021/03/09 11:28:14;;;;;;;90.30;33.78;;;;;;;7.25;100.00;101851.63;5144083;28;20038;-86
2021/03/09 11:30:44;;;;;;;68.07;29.35;;;;;;;7.40;100.00;101852.22;5139875;28;20030;-85
2021/03/09 11:33:15;;;;;;;78.57;30.20;;;;;;;7.52;100.00;101854.75;5143092;28;20482;-86
2021/03/09 11:35:45;;;;;;;66.70;28.20;;;;;;;7.63;100.00;101845.91;5143708;28;20130;-85
2021/03/09 11:38:16;;;;;;;65.07;26.90;;;;;;;7.79;100.00;101850.88;5142754;28;20457;-85
2021/03/09 11:40:47;;;;;;;64.18;27.77;;;;;;;8.05;100.00;101854.09;5143751;28;20126;-85
2021/03/09 11:43:18;;;;;;;59.92;25.40;;;;;;;8.13;100.00;101859.66;5144354;28;20514;-85
2021/03/09 11:45:48;;;;;;;52.55;23.90;;;;;;;8.28;100.00;101862.88;5143361;28;20030;-86
2021/03/09 11:48:19;;;;;;;45.95;19.90;;;;;;;8.19;100.00;101869.84;5143052;28;20493;-86
2021/03/09 11:50:49;;;;;;;44.50;20.58;;;;;;;8.18;100.00;101867.28;5143155;28;20054;-85
2021/03/09 11:53:20;;;;;;;41.95;20.00;;;;;;;8.04;100.00;101865.78;5145174;28;20030;-85
2021/03/09 11:55:51;;;;;;;47.92;21.38;;;;;;;8.00;100.00;101865.16;5159441;28;20034;-86
2021/03/09 11:58:21;;;;;;;47.70;21.02;;;;;;;7.89;100.00;101870.53;5142436;28;20023;-85
2021/03/09 12:00:52;;;;;;;46.80;20.83;;;;;;;7.74;100.00;101869.09;5142375;28;20027;-85